sensor_id;sensor_type;location;lat;lon;timestamp;P1;durP1;ratioP1;P2;durP2;ratioP2
28483;SDS011;15704;48.834;8.736;2023-12-20T00:02:11;1.27;;;0.98;;
28483;SDS011;15704;48.834;8.736;2023-12-20T00:04:38;1.20;;;0.90;;
28483;SDS011;15704;48.834;8.736;2023-12-20T00:07:05;0.90;;;0.90;;
28483;SDS011;15704;48.834;8.736;2023-12-20T00:09:32;2.58;;;0.90;;
28483;SDS011;15704;48.834;8.736;2023-12-20T00:11:59;1.00;;;0.90;;
28483;SDS011;15704;48.834;8.736;2023-12-20T00:14:26;1.10;;;1.00;;
28483;SDS011;15704;48.834;8.736;2023-12-20T00:16:53;0.75;;;0.75;;
28483;SDS011;15704;48.834;8.736;2023-12-20T00:19:19;1.00;;;0.90;;
28483;SDS011;15704;48.834;8.736;2023-12-20T00:21:46;1.02;;;0.93;;
28483;SDS011;15704;48.834;8.736;2023-12-20T00:24:13;1.10;;;1.00;;
28483;SDS011;15704;48.834;8.736;2023-12-20T00:26:40;1.30;;;0.90;;
28483;SDS011;15704;48.834;8.736;2023-12-20T00:29:07;1.10;;;0.80;;
28483;SDS011;15704;48.834;8.736;2023-12-20T00:31:34;1.00;;;0.88;;
28483;SDS011;15704;48.834;8.736;2023-12-20T00:34:01;1.00;;;0.90;;
28483;SDS011;15704;48.834;8.736;2023-12-20T00:36:28;1.27;;;0.90;;
28483;SDS011;15704;48.834;8.736;2023-12-20T00:38:55;0.90;;;0.90;;
28483;SDS011;15704;48.834;8.736;2023-12-20T00:41:21;0.80;;;0.80;;
28483;SDS011;15704;48.834;8.736;2023-12-20T00:43:48;1.15;;;1.02;;
28483;SDS011;15704;48.834;8.736;2023-12-20T00:46:15;0.93;;;0.85;;
28483;SDS011;15704;48.834;8.736;2023-12-20T00:48:42;0.98;;;0.80;;
28483;SDS011;15704;48.834;8.736;2023-12-20T00:51:09;0.88;;;0.80;;
28483;SDS011;15704;48.834;8.736;2023-12-20T00:53:36;1.00;;;0.68;;
28483;SDS011;15704;48.834;8.736;2023-12-20T00:56:03;1.10;;;0.80;;
28483;SDS011;15704;48.834;8.736;2023-12-20T00:58:30;0.82;;;0.80;;
28483;SDS011;15704;48.834;8.736;2023-12-20T01:00:57;1.00;;;0.90;;
28483;SDS011;15704;48.834;8.736;2023-12-20T01:03:24;2.08;;;0.80;;
28483;SDS011;15704;48.834;8.736;2023-12-20T01:05:51;1.20;;;0.82;;
28483;SDS011;15704;48.834;8.736;2023-12-20T01:08:18;1.17;;;1.00;;
28483;SDS011;15704;48.834;8.736;2023-12-20T01:10:45;0.63;;;0.63;;
28483;SDS011;15704;48.834;8.736;2023-12-20T01:13:13;1.27;;;0.80;;
28483;SDS011;15704;48.834;8.736;2023-12-20T01:15:40;0.95;;;0.93;;
28483;SDS011;15704;48.834;8.736;2023-12-20T01:18:06;0.95;;;0.80;;
28483;SDS011;15704;48.834;8.736;2023-12-20T01:20:33;1.15;;;0.70;;
28483;SDS011;15704;48.834;8.736;2023-12-20T01:23:00;1.30;;;1.00;;
28483;SDS011;15704;48.834;8.736;2023-12-20T01:25:27;0.80;;;0.80;;
28483;SDS011;15704;48.834;8.736;2023-12-20T01:27:54;0.80;;;0.80;;
28483;SDS011;15704;48.834;8.736;2023-12-20T01:30:20;0.95;;;0.80;;
28483;SDS011;15704;48.834;8.736;2023-12-20T01:32:47;1.75;;;0.90;;
28483;SDS011;15704;48.834;8.736;2023-12-20T01:35:14;0.80;;;0.80;;
28483;SDS011;15704;48.834;8.736;2023-12-20T01:37:41;1.58;;;1.08;;
28483;SDS011;15704;48.834;8.736;2023-12-20T01:40:08;1.00;;;0.90;;
28483;SDS011;15704;48.834;8.736;2023-12-20T01:42:35;0.80;;;0.80;;
28483;SDS011;15704;48.834;8.736;2023-12-20T01:45:02;0.55;;;0.55;;
28483;SDS011;15704;48.834;8.736;2023-12-20T01:47:30;1.00;;;0.80;;
28483;SDS011;15704;48.834;8.736;2023-12-20T01:49:57;0.70;;;0.68;;
28483;SDS011;15704;48.834;8.736;2023-12-20T01:52:24;0.77;;;0.75;;
28483;SDS011;15704;48.834;8.736;2023-12-20T01:54:52;0.70;;;0.70;;
28483;SDS011;15704;48.834;8.736;2023-12-20T01:57:21;0.85;;;0.70;;
28483;SDS011;15704;48.834;8.736;2023-12-20T01:59:48;0.73;;;0.73;;
28483;SDS011;15704;48.834;8.736;2023-12-20T02:02:14;0.85;;;0.73;;
28483;SDS011;15704;48.834;8.736;2023-12-20T02:04:41;1.10;;;0.70;;
28483;SDS011;15704;48.834;8.736;2023-12-20T02:07:09;0.75;;;0.75;;
28483;SDS011;15704;48.834;8.736;2023-12-20T02:09:38;0.57;;;0.57;;
28483;SDS011;15704;48.834;8.736;2023-12-20T02:12:05;0.93;;;0.70;;
28483;SDS011;15704;48.834;8.736;2023-12-20T02:14:32;1.58;;;0.80;;
28483;SDS011;15704;48.834;8.736;2023-12-20T02:16:59;1.10;;;0.80;;
28483;SDS011;15704;48.834;8.736;2023-12-20T02:19:26;1.67;;;0.68;;
28483;SDS011;15704;48.834;8.736;2023-12-20T02:22:04;0.80;;;0.70;;
28483;SDS011;15704;48.834;8.736;2023-12-20T02:24:37;0.70;;;0.70;;
28483;SDS011;15704;48.834;8.736;2023-12-20T02:27:05;0.65;;;0.65;;
28483;SDS011;15704;48.834;8.736;2023-12-20T02:29:33;0.75;;;0.75;;
28483;SDS011;15704;48.834;8.736;2023-12-20T02:32:01;0.75;;;0.73;;
28483;SDS011;15704;48.834;8.736;2023-12-20T02:34:29;0.60;;;0.60;;
28483;SDS011;15704;48.834;8.736;2023-12-20T02:36:56;0.80;;;0.80;;
28483;SDS011;15704;48.834;8.736;2023-12-20T02:39:23;0.60;;;0.60;;
28483;SDS011;15704;48.834;8.736;2023-12-20T02:41:49;0.88;;;0.80;;
28483;SDS011;15704;48.834;8.736;2023-12-20T02:44:16;0.50;;;0.50;;
28483;SDS011;15704;48.834;8.736;2023-12-20T02:46:43;0.98;;;0.80;;
28483;SDS011;15704;48.834;8.736;2023-12-20T02:49:10;0.55;;;0.55;;
28483;SDS011;15704;48.834;8.736;2023-12-20T02:51:37;0.60;;;0.60;;
28483;SDS011;15704;48.834;8.736;2023-12-20T02:54:06;0.80;;;0.68;;
28483;SDS011;15704;48.834;8.736;2023-12-20T02:56:33;0.88;;;0.77;;
28483;SDS011;15704;48.834;8.736;2023-12-20T02:59:00;1.23;;;0.80;;
28483;SDS011;15704;48.834;8.736;2023-12-20T03:01:28;0.50;;;0.50;;
28483;SDS011;15704;48.834;8.736;2023-12-20T03:03:55;0.88;;;0.80;;
28483;SDS011;15704;48.834;8.736;2023-12-20T03:06:22;0.60;;;0.60;;
28483;SDS011;15704;48.834;8.736;2023-12-20T03:08:49;0.63;;;0.60;;
28483;SDS011;15704;48.834;8.736;2023-12-20T03:11:16;0.90;;;0.68;;
28483;SDS011;15704;48.834;8.736;2023-12-20T03:13:43;0.85;;;0.65;;
28483;SDS011;15704;48.834;8.736;2023-12-20T03:16:10;0.65;;;0.60;;
28483;SDS011;15704;48.834;8.736;2023-12-20T03:18:38;0.57;;;0.57;;
28483;SDS011;15704;48.834;8.736;2023-12-20T03:21:05;1.02;;;0.57;;
28483;SDS011;15704;48.834;8.736;2023-12-20T03:23:32;1.10;;;0.75;;
28483;SDS011;15704;48.834;8.736;2023-12-20T03:25:59;0.68;;;0.68;;
28483;SDS011;15704;48.834;8.736;2023-12-20T03:28:26;0.88;;;0.70;;
28483;SDS011;15704;48.834;8.736;2023-12-20T03:30:54;0.57;;;0.50;;
28483;SDS011;15704;48.834;8.736;2023-12-20T03:33:21;0.50;;;0.50;;
28483;SDS011;15704;48.834;8.736;2023-12-20T03:35:48;0.85;;;0.60;;
28483;SDS011;15704;48.834;8.736;2023-12-20T03:38:14;0.43;;;0.43;;
28483;SDS011;15704;48.834;8.736;2023-12-20T03:40:41;1.50;;;0.88;;
28483;SDS011;15704;48.834;8.736;2023-12-20T03:43:08;1.27;;;0.52;;
28483;SDS011;15704;48.834;8.736;2023-12-20T03:45:35;0.70;;;0.70;;
28483;SDS011;15704;48.834;8.736;2023-12-20T03:48:02;0.57;;;0.50;;
28483;SDS011;15704;48.834;8.736;2023-12-20T03:50:29;0.60;;;0.50;;
28483;SDS011;15704;48.834;8.736;2023-12-20T03:52:56;0.60;;;0.50;;
28483;SDS011;15704;48.834;8.736;2023-12-20T03:55:23;0.50;;;0.43;;
28483;SDS011;15704;48.834;8.736;2023-12-20T03:57:50;0.88;;;0.57;;
28483;SDS011;15704;48.834;8.736;2023-12-20T04:00:17;0.60;;;0.60;;
28483;SDS011;15704;48.834;8.736;2023-12-20T04:02:44;1.30;;;0.60;;
28483;SDS011;15704;48.834;8.736;2023-12-20T04:05:11;0.45;;;0.45;;
28483;SDS011;15704;48.834;8.736;2023-12-20T04:07:38;0.40;;;0.40;;
28483;SDS011;15704;48.834;8.736;2023-12-20T04:10:05;0.50;;;0.50;;
28483;SDS011;15704;48.834;8.736;2023-12-20T04:12:33;0.35;;;0.35;;
28483;SDS011;15704;48.834;8.736;2023-12-20T04:14:59;0.55;;;0.50;;
28483;SDS011;15704;48.834;8.736;2023-12-20T04:17:26;0.50;;;0.50;;
28483;SDS011;15704;48.834;8.736;2023-12-20T04:19:53;0.45;;;0.45;;
28483;SDS011;15704;48.834;8.736;2023-12-20T04:22:20;0.68;;;0.50;;
28483;SDS011;15704;48.834;8.736;2023-12-20T04:24:47;0.40;;;0.40;;
28483;SDS011;15704;48.834;8.736;2023-12-20T04:27:14;0.70;;;0.50;;
28483;SDS011;15704;48.834;8.736;2023-12-20T04:29:40;0.52;;;0.45;;
28483;SDS011;15704;48.834;8.736;2023-12-20T04:32:07;0.47;;;0.40;;
28483;SDS011;15704;48.834;8.736;2023-12-20T04:34:34;0.45;;;0.40;;
28483;SDS011;15704;48.834;8.736;2023-12-20T04:37:01;0.50;;;0.50;;
28483;SDS011;15704;48.834;8.736;2023-12-20T04:39:28;1.20;;;0.55;;
28483;SDS011;15704;48.834;8.736;2023-12-20T04:41:55;0.60;;;0.60;;
28483;SDS011;15704;48.834;8.736;2023-12-20T04:44:22;0.40;;;0.40;;
28483;SDS011;15704;48.834;8.736;2023-12-20T04:46:48;0.40;;;0.40;;
28483;SDS011;15704;48.834;8.736;2023-12-20T04:49:15;0.50;;;0.50;;
28483;SDS011;15704;48.834;8.736;2023-12-20T04:51:42;0.50;;;0.38;;
28483;SDS011;15704;48.834;8.736;2023-12-20T04:54:09;0.55;;;0.55;;
28483;SDS011;15704;48.834;8.736;2023-12-20T04:56:36;0.88;;;0.50;;
28483;SDS011;15704;48.834;8.736;2023-12-20T04:59:03;0.65;;;0.50;;
28483;SDS011;15704;48.834;8.736;2023-12-20T05:01:30;0.40;;;0.40;;
28483;SDS011;15704;48.834;8.736;2023-12-20T05:03:57;0.50;;;0.50;;
28483;SDS011;15704;48.834;8.736;2023-12-20T05:06:24;0.50;;;0.50;;
28483;SDS011;15704;48.834;8.736;2023-12-20T05:08:51;0.32;;;0.32;;
28483;SDS011;15704;48.834;8.736;2023-12-20T05:11:17;0.30;;;0.30;;
28483;SDS011;15704;48.834;8.736;2023-12-20T05:13:44;0.30;;;0.30;;
28483;SDS011;15704;48.834;8.736;2023-12-20T05:16:16;0.75;;;0.60;;
28483;SDS011;15704;48.834;8.736;2023-12-20T05:18:45;0.28;;;0.28;;
28483;SDS011;15704;48.834;8.736;2023-12-20T05:21:14;0.40;;;0.35;;
28483;SDS011;15704;48.834;8.736;2023-12-20T05:23:40;0.43;;;0.43;;
28483;SDS011;15704;48.834;8.736;2023-12-20T05:26:07;0.40;;;0.40;;
28483;SDS011;15704;48.834;8.736;2023-12-20T05:28:34;0.40;;;0.40;;
28483;SDS011;15704;48.834;8.736;2023-12-20T05:31:01;0.57;;;0.43;;
28483;SDS011;15704;48.834;8.736;2023-12-20T05:33:28;0.30;;;0.30;;
28483;SDS011;15704;48.834;8.736;2023-12-20T05:35:55;0.30;;;0.30;;
28483;SDS011;15704;48.834;8.736;2023-12-20T05:38:22;0.47;;;0.40;;
28483;SDS011;15704;48.834;8.736;2023-12-20T05:40:49;0.68;;;0.40;;
28483;SDS011;15704;48.834;8.736;2023-12-20T05:43:16;0.30;;;0.30;;
28483;SDS011;15704;48.834;8.736;2023-12-20T05:45:43;0.40;;;0.40;;
28483;SDS011;15704;48.834;8.736;2023-12-20T05:48:10;0.45;;;0.40;;
28483;SDS011;15704;48.834;8.736;2023-12-20T05:50:37;0.40;;;0.40;;
28483;SDS011;15704;48.834;8.736;2023-12-20T05:53:04;0.40;;;0.35;;
28483;SDS011;15704;48.834;8.736;2023-12-20T05:55:31;0.40;;;0.40;;
28483;SDS011;15704;48.834;8.736;2023-12-20T05:57:58;0.25;;;0.25;;
28483;SDS011;15704;48.834;8.736;2023-12-20T06:00:26;0.63;;;0.47;;
28483;SDS011;15704;48.834;8.736;2023-12-20T06:02:52;0.30;;;0.30;;
28483;SDS011;15704;48.834;8.736;2023-12-20T06:05:19;0.47;;;0.40;;
28483;SDS011;15704;48.834;8.736;2023-12-20T06:07:46;0.40;;;0.40;;
28483;SDS011;15704;48.834;8.736;2023-12-20T06:10:15;0.40;;;0.40;;
28483;SDS011;15704;48.834;8.736;2023-12-20T06:12:44;0.70;;;0.40;;
28483;SDS011;15704;48.834;8.736;2023-12-20T06:17:40;0.40;;;0.30;;
28483;SDS011;15704;48.834;8.736;2023-12-20T06:20:07;0.32;;;0.32;;
28483;SDS011;15704;48.834;8.736;2023-12-20T06:22:35;0.32;;;0.32;;
28483;SDS011;15704;48.834;8.736;2023-12-20T06:25:02;0.50;;;0.50;;
28483;SDS011;15704;48.834;8.736;2023-12-20T06:27:30;0.30;;;0.30;;
28483;SDS011;15704;48.834;8.736;2023-12-20T06:29:58;0.50;;;0.50;;
28483;SDS011;15704;48.834;8.736;2023-12-20T06:32:25;0.47;;;0.38;;
28483;SDS011;15704;48.834;8.736;2023-12-20T06:34:52;0.32;;;0.32;;
28483;SDS011;15704;48.834;8.736;2023-12-20T06:37:19;0.55;;;0.50;;
28483;SDS011;15704;48.834;8.736;2023-12-20T06:39:46;0.40;;;0.40;;
28483;SDS011;15704;48.834;8.736;2023-12-20T06:42:13;0.35;;;0.35;;
28483;SDS011;15704;48.834;8.736;2023-12-20T06:44:40;0.40;;;0.40;;
28483;SDS011;15704;48.834;8.736;2023-12-20T06:47:06;0.40;;;0.40;;
28483;SDS011;15704;48.834;8.736;2023-12-20T06:49:34;0.32;;;0.32;;
28483;SDS011;15704;48.834;8.736;2023-12-20T06:52:01;0.40;;;0.30;;
28483;SDS011;15704;48.834;8.736;2023-12-20T06:54:28;0.55;;;0.50;;
28483;SDS011;15704;48.834;8.736;2023-12-20T06:56:55;0.30;;;0.30;;
28483;SDS011;15704;48.834;8.736;2023-12-20T06:59:22;0.40;;;0.40;;
28483;SDS011;15704;48.834;8.736;2023-12-20T07:01:48;0.40;;;0.40;;
28483;SDS011;15704;48.834;8.736;2023-12-20T07:04:16;0.43;;;0.30;;
28483;SDS011;15704;48.834;8.736;2023-12-20T07:06:50;0.33;;;0.33;;
28483;SDS011;15704;48.834;8.736;2023-12-20T07:09:23;0.32;;;0.30;;
28483;SDS011;15704;48.834;8.736;2023-12-20T07:11:50;0.47;;;0.40;;
28483;SDS011;15704;48.834;8.736;2023-12-20T07:14:17;0.28;;;0.28;;
28483;SDS011;15704;48.834;8.736;2023-12-20T07:16:44;0.43;;;0.40;;
28483;SDS011;15704;48.834;8.736;2023-12-20T07:19:11;0.30;;;0.30;;
28483;SDS011;15704;48.834;8.736;2023-12-20T07:21:38;0.28;;;0.28;;
28483;SDS011;15704;48.834;8.736;2023-12-20T07:24:05;0.40;;;0.40;;
28483;SDS011;15704;48.834;8.736;2023-12-20T07:26:32;0.30;;;0.30;;
28483;SDS011;15704;48.834;8.736;2023-12-20T07:29:00;0.30;;;0.30;;
28483;SDS011;15704;48.834;8.736;2023-12-20T07:31:27;0.30;;;0.30;;
28483;SDS011;15704;48.834;8.736;2023-12-20T07:33:53;0.30;;;0.30;;
28483;SDS011;15704;48.834;8.736;2023-12-20T07:36:20;0.43;;;0.40;;
28483;SDS011;15704;48.834;8.736;2023-12-20T07:38:47;0.30;;;0.30;;
28483;SDS011;15704;48.834;8.736;2023-12-20T07:41:14;0.30;;;0.30;;
28483;SDS011;15704;48.834;8.736;2023-12-20T07:43:47;0.20;;;0.20;;
28483;SDS011;15704;48.834;8.736;2023-12-20T07:46:14;0.20;;;0.20;;
28483;SDS011;15704;48.834;8.736;2023-12-20T07:48:41;0.28;;;0.28;;
28483;SDS011;15704;48.834;8.736;2023-12-20T07:51:11;0.30;;;0.30;;
28483;SDS011;15704;48.834;8.736;2023-12-20T07:53:38;0.40;;;0.40;;
28483;SDS011;15704;48.834;8.736;2023-12-20T07:56:14;0.50;;;0.40;;
28483;SDS011;15704;48.834;8.736;2023-12-20T07:58:42;0.52;;;0.32;;
28483;SDS011;15704;48.834;8.736;2023-12-20T08:01:18;0.57;;;0.40;;
28483;SDS011;15704;48.834;8.736;2023-12-20T08:03:45;0.25;;;0.25;;
28483;SDS011;15704;48.834;8.736;2023-12-20T08:06:13;0.32;;;0.32;;
28483;SDS011;15704;48.834;8.736;2023-12-20T08:08:39;0.28;;;0.28;;
28483;SDS011;15704;48.834;8.736;2023-12-20T08:11:08;0.40;;;0.40;;
28483;SDS011;15704;48.834;8.736;2023-12-20T08:13:34;0.30;;;0.30;;
28483;SDS011;15704;48.834;8.736;2023-12-20T08:16:01;0.35;;;0.32;;
28483;SDS011;15704;48.834;8.736;2023-12-20T08:18:31;0.60;;;0.50;;
28483;SDS011;15704;48.834;8.736;2023-12-20T08:20:58;0.30;;;0.30;;
28483;SDS011;15704;48.834;8.736;2023-12-20T08:23:26;0.70;;;0.50;;
28483;SDS011;15704;48.834;8.736;2023-12-20T08:25:56;0.50;;;0.30;;
28483;SDS011;15704;48.834;8.736;2023-12-20T08:28:23;0.50;;;0.47;;
28483;SDS011;15704;48.834;8.736;2023-12-20T08:30:50;0.40;;;0.40;;
28483;SDS011;15704;48.834;8.736;2023-12-20T08:33:20;0.85;;;0.43;;
28483;SDS011;15704;48.834;8.736;2023-12-20T08:35:46;0.20;;;0.20;;
28483;SDS011;15704;48.834;8.736;2023-12-20T08:38:13;0.40;;;0.40;;
28483;SDS011;15704;48.834;8.736;2023-12-20T08:40:40;0.30;;;0.30;;
28483;SDS011;15704;48.834;8.736;2023-12-20T08:43:07;0.50;;;0.50;;
28483;SDS011;15704;48.834;8.736;2023-12-20T08:45:34;0.43;;;0.43;;
28483;SDS011;15704;48.834;8.736;2023-12-20T08:48:01;0.40;;;0.40;;
28483;SDS011;15704;48.834;8.736;2023-12-20T08:50:33;0.43;;;0.40;;
28483;SDS011;15704;48.834;8.736;2023-12-20T08:53:00;0.30;;;0.30;;
28483;SDS011;15704;48.834;8.736;2023-12-20T08:55:27;0.45;;;0.45;;
28483;SDS011;15704;48.834;8.736;2023-12-20T08:57:55;0.30;;;0.30;;
28483;SDS011;15704;48.834;8.736;2023-12-20T09:00:22;0.40;;;0.40;;
28483;SDS011;15704;48.834;8.736;2023-12-20T09:02:52;0.30;;;0.30;;
28483;SDS011;15704;48.834;8.736;2023-12-20T09:05:18;0.40;;;0.40;;
28483;SDS011;15704;48.834;8.736;2023-12-20T09:07:45;0.50;;;0.50;;
28483;SDS011;15704;48.834;8.736;2023-12-20T09:10:12;0.55;;;0.40;;
28483;SDS011;15704;48.834;8.736;2023-12-20T09:12:41;0.55;;;0.40;;
28483;SDS011;15704;48.834;8.736;2023-12-20T09:15:09;0.28;;;0.28;;
28483;SDS011;15704;48.834;8.736;2023-12-20T09:17:35;0.70;;;0.40;;
28483;SDS011;15704;48.834;8.736;2023-12-20T09:20:02;0.95;;;0.60;;
28483;SDS011;15704;48.834;8.736;2023-12-20T09:22:32;0.43;;;0.43;;
28483;SDS011;15704;48.834;8.736;2023-12-20T09:24:59;0.38;;;0.32;;
28483;SDS011;15704;48.834;8.736;2023-12-20T09:27:28;3.75;;;0.50;;
28483;SDS011;15704;48.834;8.736;2023-12-20T09:29:54;0.73;;;0.57;;
28483;SDS011;15704;48.834;8.736;2023-12-20T09:32:21;0.30;;;0.30;;
28483;SDS011;15704;48.834;8.736;2023-12-20T09:34:48;0.90;;;0.60;;
28483;SDS011;15704;48.834;8.736;2023-12-20T09:37:15;0.35;;;0.35;;
28483;SDS011;15704;48.834;8.736;2023-12-20T09:39:42;0.75;;;0.60;;
28483;SDS011;15704;48.834;8.736;2023-12-20T09:42:09;0.40;;;0.40;;
28483;SDS011;15704;48.834;8.736;2023-12-20T09:44:38;0.77;;;0.47;;
28483;SDS011;15704;48.834;8.736;2023-12-20T09:47:08;0.60;;;0.60;;
28483;SDS011;15704;48.834;8.736;2023-12-20T09:49:35;0.70;;;0.50;;
28483;SDS011;15704;48.834;8.736;2023-12-20T09:52:04;0.77;;;0.50;;
28483;SDS011;15704;48.834;8.736;2023-12-20T09:54:33;0.85;;;0.50;;
28483;SDS011;15704;48.834;8.736;2023-12-20T09:57:00;0.90;;;0.40;;
28483;SDS011;15704;48.834;8.736;2023-12-20T09:59:26;0.40;;;0.40;;
28483;SDS011;15704;48.834;8.736;2023-12-20T10:01:54;0.40;;;0.40;;
28483;SDS011;15704;48.834;8.736;2023-12-20T10:04:24;1.10;;;0.50;;
28483;SDS011;15704;48.834;8.736;2023-12-20T10:06:56;1.30;;;0.55;;
28483;SDS011;15704;48.834;8.736;2023-12-20T10:09:23;0.50;;;0.50;;
28483;SDS011;15704;48.834;8.736;2023-12-20T10:11:53;1.75;;;0.55;;
28483;SDS011;15704;48.834;8.736;2023-12-20T10:14:21;3.78;;;0.65;;
28483;SDS011;15704;48.834;8.736;2023-12-20T10:16:50;0.57;;;0.40;;
28483;SDS011;15704;48.834;8.736;2023-12-20T10:19:17;1.58;;;0.50;;
28483;SDS011;15704;48.834;8.736;2023-12-20T10:21:46;0.57;;;0.40;;
28483;SDS011;15704;48.834;8.736;2023-12-20T10:24:17;1.48;;;0.73;;
28483;SDS011;15704;48.834;8.736;2023-12-20T10:26:44;0.60;;;0.55;;
28483;SDS011;15704;48.834;8.736;2023-12-20T10:29:10;1.30;;;0.70;;
28483;SDS011;15704;48.834;8.736;2023-12-20T10:31:37;1.15;;;0.43;;
28483;SDS011;15704;48.834;8.736;2023-12-20T10:34:09;0.73;;;0.60;;
28483;SDS011;15704;48.834;8.736;2023-12-20T10:36:35;0.73;;;0.65;;
28483;SDS011;15704;48.834;8.736;2023-12-20T10:39:02;0.82;;;0.52;;
28483;SDS011;15704;48.834;8.736;2023-12-20T10:41:31;2.42;;;0.60;;
28483;SDS011;15704;48.834;8.736;2023-12-20T10:44:03;2.05;;;0.80;;
28483;SDS011;15704;48.834;8.736;2023-12-20T10:46:33;0.50;;;0.45;;
28483;SDS011;15704;48.834;8.736;2023-12-20T10:49:04;3.58;;;1.13;;
28483;SDS011;15704;48.834;8.736;2023-12-20T10:51:33;1.02;;;0.82;;
28483;SDS011;15704;48.834;8.736;2023-12-20T10:54:01;2.97;;;0.93;;
28483;SDS011;15704;48.834;8.736;2023-12-20T10:56:29;1.50;;;0.80;;
28483;SDS011;15704;48.834;8.736;2023-12-20T10:58:59;1.33;;;0.80;;
28483;SDS011;15704;48.834;8.736;2023-12-20T11:01:29;1.17;;;0.70;;
28483;SDS011;15704;48.834;8.736;2023-12-20T11:03:56;1.23;;;0.88;;
28483;SDS011;15704;48.834;8.736;2023-12-20T11:14:58;1.38;;;0.90;;
28483;SDS011;15704;48.834;8.736;2023-12-20T11:17:31;3.33;;;1.00;;
28483;SDS011;15704;48.834;8.736;2023-12-20T11:22:30;1.77;;;1.00;;
28483;SDS011;15704;48.834;8.736;2023-12-20T11:25:09;1.52;;;0.95;;
28483;SDS011;15704;48.834;8.736;2023-12-20T11:27:37;2.25;;;1.08;;
28483;SDS011;15704;48.834;8.736;2023-12-20T11:30:07;2.15;;;1.10;;
28483;SDS011;15704;48.834;8.736;2023-12-20T11:32:36;1.58;;;0.90;;
28483;SDS011;15704;48.834;8.736;2023-12-20T11:37:36;1.58;;;0.98;;
28483;SDS011;15704;48.834;8.736;2023-12-20T11:40:07;2.10;;;1.05;;
28483;SDS011;15704;48.834;8.736;2023-12-20T11:42:38;1.92;;;0.90;;
28483;SDS011;15704;48.834;8.736;2023-12-20T11:45:09;1.60;;;1.00;;
28483;SDS011;15704;48.834;8.736;2023-12-20T11:47:37;1.25;;;0.82;;
28483;SDS011;15704;48.834;8.736;2023-12-20T11:50:04;3.33;;;1.02;;
28483;SDS011;15704;48.834;8.736;2023-12-20T11:52:32;2.05;;;1.30;;
28483;SDS011;15704;48.834;8.736;2023-12-20T11:54:58;1.77;;;1.00;;
28483;SDS011;15704;48.834;8.736;2023-12-20T11:57:25;1.42;;;0.88;;
28483;SDS011;15704;48.834;8.736;2023-12-20T11:59:54;1.27;;;1.10;;
28483;SDS011;15704;48.834;8.736;2023-12-20T12:02:20;1.77;;;1.00;;
28483;SDS011;15704;48.834;8.736;2023-12-20T12:04:50;1.23;;;0.80;;
28483;SDS011;15704;48.834;8.736;2023-12-20T12:07:17;1.88;;;1.00;;
28483;SDS011;15704;48.834;8.736;2023-12-20T12:09:45;2.17;;;1.10;;
28483;SDS011;15704;48.834;8.736;2023-12-20T12:12:12;2.25;;;1.23;;
28483;SDS011;15704;48.834;8.736;2023-12-20T12:14:40;2.15;;;1.10;;
28483;SDS011;15704;48.834;8.736;2023-12-20T12:17:10;1.27;;;0.95;;
28483;SDS011;15704;48.834;8.736;2023-12-20T12:19:41;1.25;;;0.90;;
28483;SDS011;15704;48.834;8.736;2023-12-20T12:22:10;1.85;;;1.23;;
28483;SDS011;15704;48.834;8.736;2023-12-20T12:24:43;2.03;;;1.33;;
28483;SDS011;15704;48.834;8.736;2023-12-20T12:27:11;1.75;;;1.02;;
28483;SDS011;15704;48.834;8.736;2023-12-20T12:29:39;2.65;;;1.17;;
28483;SDS011;15704;48.834;8.736;2023-12-20T12:32:06;1.40;;;0.98;;
28483;SDS011;15704;48.834;8.736;2023-12-20T12:34:35;2.42;;;1.10;;
28483;SDS011;15704;48.834;8.736;2023-12-20T12:37:05;2.50;;;1.40;;
28483;SDS011;15704;48.834;8.736;2023-12-20T12:39:33;1.50;;;1.00;;
28483;SDS011;15704;48.834;8.736;2023-12-20T12:42:00;2.13;;;1.20;;
28483;SDS011;15704;48.834;8.736;2023-12-20T12:44:27;2.25;;;1.27;;
28483;SDS011;15704;48.834;8.736;2023-12-20T12:46:54;1.60;;;1.20;;
28483;SDS011;15704;48.834;8.736;2023-12-20T12:49:21;2.13;;;1.30;;
28483;SDS011;15704;48.834;8.736;2023-12-20T12:51:48;2.55;;;1.50;;
28483;SDS011;15704;48.834;8.736;2023-12-20T12:54:15;1.60;;;1.08;;
28483;SDS011;15704;48.834;8.736;2023-12-20T12:56:43;1.67;;;1.05;;
28483;SDS011;15704;48.834;8.736;2023-12-20T12:59:10;2.20;;;1.25;;
28483;SDS011;15704;48.834;8.736;2023-12-20T13:01:37;3.83;;;1.17;;
28483;SDS011;15704;48.834;8.736;2023-12-20T13:04:05;1.67;;;1.17;;
28483;SDS011;15704;48.834;8.736;2023-12-20T13:06:37;2.83;;;1.30;;
28483;SDS011;15704;48.834;8.736;2023-12-20T13:09:04;2.55;;;1.55;;
28483;SDS011;15704;48.834;8.736;2023-12-20T13:11:31;1.67;;;1.10;;
28483;SDS011;15704;48.834;8.736;2023-12-20T13:13:58;1.92;;;1.33;;
28483;SDS011;15704;48.834;8.736;2023-12-20T13:16:26;2.92;;;1.42;;
28483;SDS011;15704;48.834;8.736;2023-12-20T13:18:53;3.10;;;1.50;;
28483;SDS011;15704;48.834;8.736;2023-12-20T13:21:20;2.83;;;1.35;;
28483;SDS011;15704;48.834;8.736;2023-12-20T13:23:46;2.55;;;1.48;;
28483;SDS011;15704;48.834;8.736;2023-12-20T13:26:14;3.65;;;1.58;;
28483;SDS011;15704;48.834;8.736;2023-12-20T13:28:41;2.80;;;1.30;;
28483;SDS011;15704;48.834;8.736;2023-12-20T13:31:08;3.75;;;1.95;;
28483;SDS011;15704;48.834;8.736;2023-12-20T13:33:35;1.88;;;1.17;;
28483;SDS011;15704;48.834;8.736;2023-12-20T13:36:02;4.07;;;1.65;;
28483;SDS011;15704;48.834;8.736;2023-12-20T13:38:33;2.93;;;1.50;;
28483;SDS011;15704;48.834;8.736;2023-12-20T13:41:00;3.97;;;1.52;;
28483;SDS011;15704;48.834;8.736;2023-12-20T13:43:26;3.25;;;1.70;;
28483;SDS011;15704;48.834;8.736;2023-12-20T13:45:53;3.15;;;1.55;;
28483;SDS011;15704;48.834;8.736;2023-12-20T13:48:20;4.10;;;1.80;;
28483;SDS011;15704;48.834;8.736;2023-12-20T13:50:48;2.85;;;1.25;;
28483;SDS011;15704;48.834;8.736;2023-12-20T13:53:14;4.10;;;1.50;;
28483;SDS011;15704;48.834;8.736;2023-12-20T13:55:41;4.38;;;1.65;;
28483;SDS011;15704;48.834;8.736;2023-12-20T13:58:08;2.40;;;1.13;;
28483;SDS011;15704;48.834;8.736;2023-12-20T14:00:36;2.55;;;1.35;;
28483;SDS011;15704;48.834;8.736;2023-12-20T14:03:04;1.90;;;1.13;;
28483;SDS011;15704;48.834;8.736;2023-12-20T14:05:31;5.75;;;1.38;;
28483;SDS011;15704;48.834;8.736;2023-12-20T14:07:58;2.35;;;1.60;;
28483;SDS011;15704;48.834;8.736;2023-12-20T14:10:25;2.25;;;1.13;;
28483;SDS011;15704;48.834;8.736;2023-12-20T14:12:55;3.10;;;1.50;;
28483;SDS011;15704;48.834;8.736;2023-12-20T14:15:22;3.13;;;1.40;;
28483;SDS011;15704;48.834;8.736;2023-12-20T14:17:52;2.47;;;1.20;;
28483;SDS011;15704;48.834;8.736;2023-12-20T14:20:19;2.50;;;1.40;;
28483;SDS011;15704;48.834;8.736;2023-12-20T14:22:46;2.50;;;1.50;;
28483;SDS011;15704;48.834;8.736;2023-12-20T14:25:13;4.72;;;1.52;;
28483;SDS011;15704;48.834;8.736;2023-12-20T14:27:41;3.45;;;1.60;;
28483;SDS011;15704;48.834;8.736;2023-12-20T14:30:12;2.20;;;1.17;;
28483;SDS011;15704;48.834;8.736;2023-12-20T14:32:41;1.63;;;1.15;;
28483;SDS011;15704;48.834;8.736;2023-12-20T14:35:08;2.03;;;1.50;;
28483;SDS011;15704;48.834;8.736;2023-12-20T14:37:35;2.95;;;1.33;;
28483;SDS011;15704;48.834;8.736;2023-12-20T14:40:07;4.82;;;1.48;;
28483;SDS011;15704;48.834;8.736;2023-12-20T14:42:45;2.63;;;1.33;;
28483;SDS011;15704;48.834;8.736;2023-12-20T14:45:14;3.05;;;1.40;;
28483;SDS011;15704;48.834;8.736;2023-12-20T14:47:41;2.17;;;1.30;;
28483;SDS011;15704;48.834;8.736;2023-12-20T14:50:08;1.88;;;1.10;;
28483;SDS011;15704;48.834;8.736;2023-12-20T14:52:36;2.95;;;1.40;;
28483;SDS011;15704;48.834;8.736;2023-12-20T14:55:03;2.85;;;1.35;;
28483;SDS011;15704;48.834;8.736;2023-12-20T14:57:31;2.75;;;1.48;;
28483;SDS011;15704;48.834;8.736;2023-12-20T14:59:58;2.95;;;1.63;;
28483;SDS011;15704;48.834;8.736;2023-12-20T15:02:25;2.92;;;1.13;;
28483;SDS011;15704;48.834;8.736;2023-12-20T15:04:52;2.72;;;1.20;;
28483;SDS011;15704;48.834;8.736;2023-12-20T15:07:19;2.83;;;1.42;;